Las Peladas, Argentina
Current Conditions -  °F | °C
As of 9:00 AM on Monday 24 Nov 2014 (Local Time) from SCAT Reporting Station
Overcast Overcast  
Wind Chill: 55°   Ceiling: 900
Heat Index: 55°   Visibility: 6mi
Dew Point: 50°   Wind: 7mph
Humidity: 82%   Direction: 340°NNW
Pressure: 30"   Gusts: NA
Location:  27.04°S, 68.09°W
Report Text: SCAT 241200Z 34006KT 9999 OVC009 13/10 Q1016
Loading
Personal Weather Stations






























Interactive Weather Map New forecast layout! Learn more

10-Day Weather Forecast

Advertisements
Track Severe Weather on mobile